createdAt,value
2022-08-17T00:00:51.796Z,99838.00
2022-08-17T00:03:55.168Z,99836.28
2022-08-17T00:06:59.319Z,99838.38
2022-08-17T00:10:04.421Z,99828.63
2022-08-17T00:13:26.058Z,99836.22
2022-08-17T00:16:55.521Z,99840.00
2022-08-17T00:20:00.240Z,99828.81
2022-08-17T00:23:13.383Z,99833.87
2022-08-17T00:26:34.554Z,99818.09
2022-08-17T00:29:42.587Z,99821.41
2022-08-17T00:33:23.442Z,99820.50
2022-08-17T00:36:14.620Z,99829.53
2022-08-17T00:39:17.228Z,99833.53
2022-08-17T00:42:20.089Z,99830.06
2022-08-17T00:45:23.385Z,99830.84
2022-08-17T00:48:30.182Z,99823.25
2022-08-17T00:51:39.405Z,99827.97
2022-08-17T00:54:49.545Z,99842.38
2022-08-17T00:57:55.590Z,99848.41
2022-08-17T01:01:02.119Z,99855.06
2022-08-17T01:04:05.275Z,99841.66
2022-08-17T01:07:11.607Z,99842.91
2022-08-17T01:11:00.038Z,99841.31
2022-08-17T01:13:41.969Z,99853.38
2022-08-17T01:16:44.953Z,99848.66
2022-08-17T01:19:52.892Z,99848.84
2022-08-17T01:22:56.358Z,99846.16
2022-08-17T01:26:01.901Z,99844.44
2022-08-17T01:29:06.608Z,99855.94
2022-08-17T01:32:10.218Z,99854.84
2022-08-17T01:35:13.372Z,99850.78
2022-08-17T01:38:17.605Z,99852.50
2022-08-17T01:41:35.058Z,99851.88
2022-08-17T01:44:38.199Z,99846.88
2022-08-17T01:47:42.108Z,99859.81
2022-08-17T01:50:45.448Z,99858.09
2022-08-17T01:53:52.118Z,99852.72
2022-08-17T01:56:55.198Z,99853.69
2022-08-17T01:59:57.806Z,99857.47
2022-08-17T02:03:00.678Z,99851.84
2022-08-17T02:06:05.188Z,99864.47
2022-08-17T02:09:08.162Z,99860.06
2022-08-17T02:12:38.953Z,99857.97
2022-08-17T02:15:44.976Z,99854.19
2022-08-17T02:18:47.989Z,99856.84
2022-08-17T02:21:52.179Z,99857.81
2022-08-17T02:25:00.857Z,99852.31
2022-08-17T02:28:06.704Z,99845.38
2022-08-17T02:31:11.564Z,99846.63
2022-08-17T02:34:21.570Z,99843.03
2022-08-17T02:37:30.055Z,99842.56
2022-08-17T02:40:36.483Z,99840.06
2022-08-17T02:43:39.648Z,99850.75
2022-08-17T02:46:41.924Z,99854.84
2022-08-17T02:49:54.189Z,99855.66
2022-08-17T02:53:02.393Z,99853.78
2022-08-17T02:56:05.758Z,99846.69
2022-08-17T02:59:08.379Z,99850.00
2022-08-17T03:02:11.847Z,99854.91
2022-08-17T03:05:15.215Z,99852.38
2022-08-17T03:08:18.609Z,99851.75
2022-08-17T03:11:21.465Z,99849.06
2022-08-17T03:14:26.272Z,99852.69
2022-08-17T03:17:31.479Z,99846.53
2022-08-17T03:20:36.316Z,99854.94
2022-08-17T03:23:42.589Z,99854.44
2022-08-17T03:26:47.899Z,99851.28
2022-08-17T03:29:50.446Z,99852.06
2022-08-17T03:32:55.015Z,99859.31
2022-08-17T03:35:59.769Z,99867.53
2022-08-17T03:39:02.330Z,99872.13
2022-08-17T03:42:09.501Z,99866.56
2022-08-17T03:45:51.535Z,99873.97
2022-08-17T03:49:14.545Z,99886.94
2022-08-17T03:52:38.318Z,99885.66
2022-08-17T03:56:00.239Z,99879.84
2022-08-17T03:59:03.121Z,99883.75
2022-08-17T04:02:13.370Z,99885.50
2022-08-17T04:05:16.112Z,99888.81
2022-08-17T04:08:19.128Z,99888.22
2022-08-17T04:11:24.680Z,99892.13
2022-08-17T04:14:31.239Z,99898.28
2022-08-17T04:17:34.641Z,99898.44
2022-08-17T04:20:41.676Z,99902.06
2022-08-17T04:23:45.372Z,99903.00
2022-08-17T04:26:53.441Z,99893.09
2022-08-17T04:30:01.196Z,99903.50
2022-08-17T04:33:08.772Z,99899.06
2022-08-17T04:36:13.886Z,99904.72
2022-08-17T04:39:17.128Z,99904.41
2022-08-17T04:42:20.092Z,99904.38
2022-08-17T04:45:25.335Z,99912.91
2022-08-17T04:48:50.394Z,99908.31
2022-08-17T04:52:00.131Z,99913.47
2022-08-17T04:55:07.464Z,99909.03
2022-08-17T04:58:11.058Z,99921.12
2022-08-17T05:01:14.733Z,99919.47
2022-08-17T05:04:33.647Z,99917.72
2022-08-17T05:07:35.317Z,99922.19
2022-08-17T05:10:45.247Z,99922.88
2022-08-17T05:13:58.289Z,99916.91
2022-08-17T05:17:07.259Z,99921.47
2022-08-17T05:20:18.547Z,99922.03
2022-08-17T05:23:21.985Z,99925.25
2022-08-17T05:26:27.332Z,99932.66
2022-08-17T05:29:34.480Z,99932.25
2022-08-17T05:32:40.298Z,99922.53
2022-08-17T05:35:47.072Z,99935.22
2022-08-17T05:38:50.764Z,99933.66
2022-08-17T05:41:53.607Z,99926.75
2022-08-17T05:44:59.537Z,99928.56
2022-08-17T05:48:02.921Z,99927.88
2022-08-17T05:51:25.719Z,99937.31
2022-08-17T05:54:37.461Z,99935.72
2022-08-17T05:57:52.950Z,99937.53
2022-08-17T06:01:22.843Z,99940.66
2022-08-17T06:04:45.226Z,99941.31
2022-08-17T06:08:00.096Z,99945.81
2022-08-17T06:11:24.667Z,99943.94
2022-08-17T06:14:55.476Z,99950.66
2022-08-17T06:18:19.209Z,99946.06
2022-08-17T06:21:45.951Z,99945.25
2022-08-17T06:25:30.618Z,99953.94
2022-08-17T06:28:43.297Z,99956.47
2022-08-17T06:31:57.877Z,99957.16
2022-08-17T06:35:06.969Z,99963.22
2022-08-17T06:38:37.241Z,99962.94
2022-08-17T06:41:58.995Z,99960.91
2022-08-17T06:45:07.007Z,99965.78
2022-08-17T06:48:15.624Z,99968.06
2022-08-17T06:51:58.220Z,99969.56
2022-08-17T06:55:18.087Z,99967.44
2022-08-17T06:58:36.685Z,99969.13
2022-08-17T07:02:05.456Z,99962.50
2022-08-17T07:05:25.737Z,99963.19
2022-08-17T07:09:09.003Z,99965.47
2022-08-17T07:12:41.738Z,99964.38
2022-08-17T07:15:59.628Z,99962.44
2022-08-17T07:19:26.416Z,99963.13
2022-08-17T07:22:59.260Z,99971.41
2022-08-17T07:26:40.395Z,99966.16
2022-08-17T07:30:05.703Z,99969.25
2022-08-17T07:33:32.550Z,99961.22
2022-08-17T07:37:05.450Z,99955.69
2022-08-17T07:40:43.263Z,99965.06
2022-08-17T07:48:10.927Z,99959.94
2022-08-17T07:51:39.666Z,99958.72
2022-08-17T07:55:29.541Z,99958.88
2022-08-17T07:58:44.658Z,99967.84
2022-08-17T08:01:58.977Z,99964.75
2022-08-17T08:05:50.528Z,99967.38
2022-08-17T08:09:28.135Z,99972.78
2022-08-17T08:12:43.125Z,99969.44
2022-08-17T08:15:53.767Z,99966.75
2022-08-17T08:19:02.638Z,99965.53
2022-08-17T08:22:11.288Z,99964.69
2022-08-17T08:25:19.879Z,99975.25
2022-08-17T08:28:43.788Z,99973.22
2022-08-17T08:31:58.339Z,99974.03
2022-08-17T08:35:07.776Z,99972.63
2022-08-17T08:38:32.979Z,99971.84
2022-08-17T08:42:09.782Z,99974.41
2022-08-17T08:45:16.095Z,99965.53
2022-08-17T08:48:52.784Z,99967.31
2022-08-17T08:51:55.686Z,99970.84
2022-08-17T08:55:15.522Z,99957.53
2022-08-17T08:58:36.242Z,99961.69
2022-08-17T09:01:57.370Z,99954.81
2022-08-17T09:05:14.342Z,99953.69
2022-08-17T09:08:32.495Z,99957.34
2022-08-17T09:11:35.979Z,99959.97
2022-08-17T09:15:41.250Z,99967.69
2022-08-17T09:19:17.249Z,99967.59
2022-08-17T09:22:31.889Z,99965.28
2022-08-17T09:25:50.512Z,99968.03
2022-08-17T09:29:32.416Z,99960.75
2022-08-17T09:32:39.466Z,99962.87
2022-08-17T09:35:45.604Z,99958.53
2022-08-17T09:38:48.853Z,99962.69
2022-08-17T09:42:00.768Z,99955.94
2022-08-17T09:45:23.369Z,99942.38
2022-08-17T09:48:31.230Z,99946.66
2022-08-17T09:51:40.555Z,99945.31
2022-08-17T09:54:46.592Z,99943.38
2022-08-17T09:58:18.911Z,99930.59
2022-08-17T10:01:31.457Z,99941.72
2022-08-17T10:04:37.363Z,99939.44
2022-08-17T10:08:00.947Z,99939.87
2022-08-17T10:11:33.406Z,99941.25
2022-08-17T10:14:44.016Z,99938.41
2022-08-17T10:18:16.680Z,99937.94
2022-08-17T10:21:38.471Z,99935.03
2022-08-17T10:25:22.303Z,99929.84
2022-08-17T10:28:32.539Z,99933.09
2022-08-17T10:31:50.127Z,99933.13
2022-08-17T10:35:11.098Z,99934.25
2022-08-17T10:38:32.653Z,99938.34
2022-08-17T10:41:48.485Z,99929.12
2022-08-17T10:45:00.938Z,99929.22
2022-08-17T10:48:07.549Z,99929.31
2022-08-17T10:51:38.409Z,99935.66
2022-08-17T10:55:15.524Z,99933.03
2022-08-17T10:58:22.255Z,99925.75
2022-08-17T11:01:34.179Z,99925.19
2022-08-17T11:04:44.446Z,99921.62
2022-08-17T11:08:06.679Z,99923.22
2022-08-17T11:11:09.367Z,99918.69
2022-08-17T11:14:25.618Z,99925.31
2022-08-17T11:17:50.421Z,99914.31
2022-08-17T11:21:00.233Z,99913.97
2022-08-17T11:24:24.426Z,99915.81
2022-08-17T11:27:33.069Z,99909.47
2022-08-17T11:30:49.497Z,99913.97
2022-08-17T11:33:55.222Z,99902.47
2022-08-17T11:37:08.787Z,99895.84
2022-08-17T11:40:31.119Z,99897.47
2022-08-17T11:43:45.870Z,99895.00
2022-08-17T11:47:15.212Z,99892.91
2022-08-17T11:50:50.849Z,99890.28
2022-08-17T11:54:21.667Z,99884.56
2022-08-17T11:57:27.093Z,99885.75
2022-08-17T12:00:49.695Z,99879.81
2022-08-17T12:04:12.597Z,99877.91
2022-08-17T12:07:24.285Z,99887.34
2022-08-17T12:10:31.956Z,99883.72
2022-08-17T12:13:43.705Z,99876.56
2022-08-17T12:16:57.333Z,99865.28
2022-08-17T12:20:35.683Z,99871.75
2022-08-17T12:23:38.865Z,99860.97
2022-08-17T12:26:44.148Z,99857.56
2022-08-17T12:29:47.295Z,99855.16
2022-08-17T12:36:51.368Z,99851.59
2022-08-17T12:43:36.005Z,99849.88
2022-08-17T12:46:49.273Z,99851.59
2022-08-17T12:49:54.090Z,99843.44
2022-08-17T12:53:02.439Z,99841.25
2022-08-17T12:56:20.030Z,99845.78
2022-08-17T12:59:29.929Z,99843.69
2022-08-17T13:02:40.516Z,99840.81
2022-08-17T13:05:57.514Z,99835.53
2022-08-17T13:09:18.893Z,99845.16
2022-08-17T13:12:34.108Z,99843.38
2022-08-17T13:15:54.462Z,99828.59
2022-08-17T13:19:32.983Z,99836.22
2022-08-17T13:22:34.264Z,99831.16
2022-08-17T13:25:53.169Z,99825.81
2022-08-17T13:29:37.526Z,99827.22
2022-08-17T13:32:48.357Z,99831.00
2022-08-17T13:36:06.759Z,99825.63
2022-08-17T13:39:41.033Z,99831.91
2022-08-17T13:42:58.875Z,99815.25
2022-08-17T13:46:11.599Z,99819.03
2022-08-17T13:49:23.973Z,99820.44
2022-08-17T13:53:58.240Z,99820.28
2022-08-17T14:07:50.842Z,99817.94
2022-08-17T14:12:00.895Z,99812.00
2022-08-17T14:15:55.725Z,99814.09
2022-08-17T14:19:02.118Z,99818.97
2022-08-17T14:22:09.771Z,99810.63
2022-08-17T14:25:17.529Z,99811.50
2022-08-17T14:28:26.313Z,99805.13
2022-08-17T14:31:34.118Z,99811.25
2022-08-17T14:35:01.052Z,99814.78
2022-08-17T14:38:06.082Z,99813.72
2022-08-17T14:41:09.604Z,99806.88
2022-08-17T14:44:13.706Z,99822.03
2022-08-17T14:47:17.247Z,99811.94
2022-08-17T14:50:21.331Z,99808.94
2022-08-17T14:53:26.056Z,99815.41
2022-08-17T14:56:35.356Z,99804.13
2022-08-17T14:59:41.577Z,99811.28
2022-08-17T15:02:49.066Z,99812.16
2022-08-17T15:05:52.315Z,99809.72
2022-08-17T15:08:56.085Z,99801.16
2022-08-17T15:12:18.264Z,99808.16
2022-08-17T15:15:37.955Z,99805.31
2022-08-17T15:18:45.398Z,99807.00
2022-08-17T15:21:59.735Z,99804.25
2022-08-17T15:25:09.150Z,99798.94
2022-08-17T15:28:22.711Z,99803.06
2022-08-17T15:31:31.753Z,99808.22
2022-08-17T15:34:40.537Z,99804.63
2022-08-17T15:37:44.017Z,99804.63
2022-08-17T15:40:48.421Z,99802.56
2022-08-17T15:45:45.100Z,99806.88
2022-08-17T15:49:05.635Z,99811.69
2022-08-17T15:52:30.158Z,99809.72
2022-08-17T15:55:33.959Z,99813.75
2022-08-17T15:58:46.803Z,99806.94
2022-08-17T16:03:13.662Z,99810.47
2022-08-17T16:05:27.205Z,99813.84
2022-08-17T16:08:31.452Z,99812.59
2022-08-17T16:11:37.354Z,99813.84
2022-08-17T16:14:43.280Z,99816.13
2022-08-17T16:17:48.491Z,99809.53
2022-08-17T16:20:57.832Z,99808.66
2022-08-17T16:24:13.403Z,99811.88
2022-08-17T16:27:20.959Z,99804.41
2022-08-17T16:30:27.421Z,99801.84
2022-08-17T16:33:33.591Z,99801.31
2022-08-17T16:36:37.615Z,99801.19
2022-08-17T16:39:43.781Z,99795.81
2022-08-17T16:42:49.372Z,99795.81
2022-08-17T16:45:55.447Z,99799.06
2022-08-17T16:49:27.617Z,99801.09
2022-08-17T16:53:19.414Z,99804.84
2022-08-17T16:56:52.087Z,99800.31
2022-08-17T16:59:54.819Z,99793.56
2022-08-17T17:03:19.881Z,99798.56
2022-08-17T17:06:38.236Z,99797.16
2022-08-17T17:09:47.709Z,99802.03
2022-08-17T17:13:41.224Z,99799.00
2022-08-17T17:17:06.261Z,99798.69
2022-08-17T17:20:22.461Z,99807.84
2022-08-17T17:23:57.384Z,99807.94
2022-08-17T17:27:08.899Z,99807.62
2022-08-17T17:30:26.087Z,99811.81
2022-08-17T17:33:56.410Z,99813.06
2022-08-17T17:37:32.808Z,99824.81
2022-08-17T17:41:13.620Z,99826.75
2022-08-17T17:44:24.488Z,99830.97
2022-08-17T17:47:50.279Z,99834.00
2022-08-17T17:51:03.247Z,99836.66
2022-08-17T17:54:19.972Z,99842.78
2022-08-17T17:57:38.447Z,99840.28
2022-08-17T18:00:59.151Z,99840.84
2022-08-17T18:04:31.504Z,99847.59
2022-08-17T18:08:33.923Z,99841.19
2022-08-17T18:11:51.466Z,99841.75
2022-08-17T18:15:11.244Z,99839.66
2022-08-17T18:18:17.658Z,99848.00
2022-08-17T18:21:23.901Z,99842.44
2022-08-17T18:24:36.056Z,99853.19
2022-08-17T18:28:05.389Z,99856.56
2022-08-17T18:32:17.324Z,99867.62
2022-08-17T18:35:30.502Z,99866.63
2022-08-17T18:38:38.698Z,99870.38
2022-08-17T18:41:48.985Z,99880.34
2022-08-17T18:44:55.322Z,99881.50
2022-08-17T18:48:03.624Z,99881.84
2022-08-17T18:51:41.461Z,99891.88
2022-08-17T18:55:06.140Z,99892.13
2022-08-17T18:58:23.699Z,99891.22
2022-08-17T19:02:21.622Z,99891.53
2022-08-17T19:05:42.991Z,99892.22
2022-08-17T19:08:46.289Z,99894.37
2022-08-17T19:11:50.610Z,99888.81
2022-08-17T19:14:56.373Z,99893.31
2022-08-17T19:18:26.887Z,99894.69
2022-08-17T19:21:45.112Z,99898.00
2022-08-17T19:24:55.778Z,99899.84
2022-08-17T19:28:32.681Z,99897.00
2022-08-17T19:31:36.339Z,99899.84
2022-08-17T19:34:44.442Z,99905.94
2022-08-17T19:38:19.381Z,99905.38
2022-08-17T19:41:30.365Z,99903.97
2022-08-17T19:45:00.634Z,99899.12
2022-08-17T19:48:18.776Z,99896.97
2022-08-17T19:51:50.629Z,99907.56
2022-08-17T19:55:07.315Z,99912.06
2022-08-17T19:58:34.664Z,99913.19
2022-08-17T20:01:47.997Z,99909.19
2022-08-17T20:04:58.732Z,99913.56
2022-08-17T20:11:54.797Z,99901.97
2022-08-17T20:15:04.298Z,99902.91
2022-08-17T20:18:19.016Z,99904.34
2022-08-17T20:21:30.388Z,99894.47
2022-08-17T20:24:43.339Z,99901.03
2022-08-17T20:27:55.575Z,99893.25
2022-08-17T20:31:47.556Z,99905.78
2022-08-17T20:35:03.856Z,99902.75
2022-08-17T20:38:08.165Z,99893.25
2022-08-17T20:41:31.000Z,99893.16
2022-08-17T20:48:15.226Z,99891.31
2022-08-17T20:51:27.606Z,99895.13
2022-08-17T20:54:50.702Z,99884.25
2022-08-17T20:57:56.741Z,99888.00
2022-08-17T21:01:00.220Z,99894.22
2022-08-17T21:04:08.348Z,99888.28
2022-08-17T21:07:51.264Z,99891.91
2022-08-17T21:10:57.418Z,99887.13
2022-08-17T21:14:24.517Z,99892.66
2022-08-17T21:17:40.067Z,99892.22
2022-08-17T21:21:05.697Z,99894.16
2022-08-17T21:24:42.684Z,99886.22
2022-08-17T21:28:07.299Z,99899.97
2022-08-17T21:31:34.798Z,99900.66
2022-08-17T21:34:46.645Z,99896.59
2022-08-17T21:37:54.230Z,99903.56
2022-08-17T21:40:57.054Z,99907.41
2022-08-17T21:44:32.346Z,99907.97
2022-08-17T21:47:35.351Z,99910.78
2022-08-17T21:50:44.132Z,99916.19
2022-08-17T21:53:50.308Z,99919.44
2022-08-17T21:56:53.944Z,99912.69
2022-08-17T22:00:00.743Z,99915.97
2022-08-17T22:03:21.044Z,99922.81
2022-08-17T22:06:30.544Z,99927.00
2022-08-17T22:09:41.024Z,99931.03
2022-08-17T22:13:02.147Z,99936.31
2022-08-17T22:16:04.500Z,99941.13
2022-08-17T22:19:24.081Z,99937.53
2022-08-17T22:23:20.124Z,99947.37
2022-08-17T22:26:46.970Z,99951.84
2022-08-17T22:30:00.655Z,99947.13
2022-08-17T22:33:29.225Z,99942.53
2022-08-17T22:36:36.317Z,99949.41
2022-08-17T22:39:40.511Z,99960.19
2022-08-17T22:42:48.619Z,99955.44
2022-08-17T22:46:00.009Z,99953.22
2022-08-17T22:49:03.321Z,99954.78
2022-08-17T22:52:16.559Z,99959.12
2022-08-17T22:55:38.000Z,99960.59
2022-08-17T22:59:12.835Z,99973.22
2022-08-17T23:02:25.240Z,99987.69
2022-08-17T23:05:28.341Z,99986.91
2022-08-17T23:08:33.933Z,99995.56
2022-08-17T23:11:49.348Z,99994.66
2022-08-17T23:15:00.817Z,100001.84
2022-08-17T23:18:05.177Z,99996.78
2022-08-17T23:21:10.015Z,100000.47
2022-08-17T23:24:23.787Z,100007.88
2022-08-17T23:27:29.442Z,100012.94
2022-08-17T23:30:37.138Z,100006.50
2022-08-17T23:33:40.977Z,100010.03
2022-08-17T23:36:50.204Z,100007.56
2022-08-17T23:39:57.397Z,99988.00
2022-08-17T23:43:00.599Z,99985.78
2022-08-17T23:46:07.477Z,99971.84
2022-08-17T23:49:11.237Z,99976.84
2022-08-17T23:52:16.401Z,99978.63
2022-08-17T23:55:21.857Z,99978.94
2022-08-17T23:58:24.411Z,99969.94
